Aérodrome :







RETROUVEZ-NOUS SUR...

 
LOGIN :

S'inscrire | Disclaimer

   EN    FR    IT 

 









Légende :    VFR   VFR Marginal   IFR   IFR Intensif   IFR Très Intensif
Visi : 
Plafond : 
>= 8 km
>= 3000ft
5 à 8 km
1000 à 3000 ft
1500m à 5 km
500 à 1000 ft
800 à 1500m
200 à 500 ft
< 800m
< 200 ft
Symboles :   Orages  Brouillard  Fortes neiges  Fortes précipitations  Vent > 20 kt






- Altitude de l'aérodrome : 357 ft
- Code IATA : YSJ


CYSJ - Saint John

DERNIER METAR :
  • 172300Z 33016G21KT 15SM FEW025 M16/M21 A3028 RMK SC1 SLP266

METARs EXPIRÉS :
  • 172200Z 33020G30KT 15SM DRSN FEW025 M15/M21 A3023 RMK SC1 SLP250
  • 172100Z 34020G33KT 15SM DRSN FEW025 M14/M20 A3020 RMK SC1 SLP237

TAF TAF CYSJ
Valide du 17 à 18h jusqu'au 18 à 06h UTC


171738Z 1718/1806 35022G35KT P6SM FEW025
BECMG 1801/1803 33015G25KT
BECMG 1804/1806 32012G22KT RMK NXT FCST BY 180000Z



MET'MAP, la Météo Aéronautique d'un coup d'oeil ! - Copyright ORBIFLY Décembre 2007 - Disclaimer

ORBIFLY MET'MAP TEAM :

Programmation & Développement : Alexandra Zaïnal
Sur une idée originale de : Baudouin d'Aumeries
Assistance à la programmation : Marc-Olivier Méhu
Soutien technique & logistique : Manuel Goepfert

Contact : metmap@orbifly.com




SOURCES & CREDITS :

   NOAA